Time;durP1;ratioP1;P1;durP2;ratioP2;P2;SDS_P1;SDS_P2;PMS_P1;PMS_P2;Temp;Humidity;BMP_temperature;BMP_pressure;BME280_temperature;BME280_humidity;BME280_pressure;Samples;Min_cycle;Max_cycle;Signal;HPM_P1;HPM_P2
2022/10/22 00:02:32;;;;;;;10.45;6.95;;;;;;;10.83;45.37;101992.25;5083703;27;21012;-67
2022/10/22 00:04:57;;;;;;;11.05;6.60;;;;;;;10.87;45.49;101998.94;5036176;28;20402;-67
2022/10/22 00:07:23;;;;;;;11.43;6.23;;;;;;;10.80;45.61;101990.69;5035327;28;20384;-67
2022/10/22 00:09:48;;;;;;;9.47;6.60;;;;;;;10.75;45.79;101994.75;5026839;28;20474;-66
2022/10/22 00:12:14;;;;;;;9.82;6.10;;;;;;;10.73;45.83;101989.56;5026829;28;20957;-66
2022/10/22 00:14:40;;;;;;;11.60;6.80;;;;;;;10.69;45.61;101996.16;5033906;28;20388;-67
2022/10/22 00:18:14;;;;;;;10.70;6.00;;;;;;;10.68;45.89;101981.22;5073868;27;20401;-65
2022/10/22 00:21:29;;;;;;;10.05;6.53;;;;;;;10.66;45.87;101993.75;5075268;27;20395;-66
2022/10/22 00:23:55;;;;;;;10.75;6.47;;;;;;;10.64;45.86;101995.72;5025357;28;20406;-66
2022/10/22 00:26:21;;;;;;;9.13;6.10;;;;;;;10.64;46.17;101990.41;5026973;28;20882;-66
2022/10/22 00:28:47;;;;;;;13.13;6.47;;;;;;;10.63;46.10;101994.06;5045886;28;20401;-66
2022/10/22 00:31:14;;;;;;;10.75;6.45;;;;;;;10.61;46.15;101982.75;5039385;28;20481;-66
2022/10/22 00:33:40;;;;;;;9.27;6.10;;;;;;;10.59;46.24;101974.06;5040366;28;20428;-66
2022/10/22 00:36:07;;;;;;;8.38;6.00;;;;;;;10.60;46.09;101967.81;5046537;28;20389;-66
2022/10/22 00:38:32;;;;;;;10.77;6.50;;;;;;;10.63;45.85;101964.91;5046564;28;20874;-66
2022/10/22 00:42:01;;;;;;;13.40;6.60;;;;;;;10.57;46.09;101957.47;5078441;27;20989;-66
2022/10/22 00:45:01;;;;;;;10.43;6.45;;;;;;;10.56;45.98;101961.13;5026982;28;20549;-66
2022/10/22 00:48:32;;;;;;;9.10;6.13;;;;;;;10.58;46.11;101954.69;5089001;27;20411;-67
2022/10/22 00:51:06;;;;;;;11.00;6.15;;;;;;;10.55;46.29;101941.69;5030178;28;20404;-66
2022/10/22 00:56:45;;;;;;;11.23;7.13;;;;;;;10.50;46.52;101938.66;5067137;27;20412;-66
2022/10/22 00:59:12;;;;;;;11.82;6.65;;;;;;;10.46;46.59;101932.81;5026897;28;20399;-65
2022/10/22 01:01:38;;;;;;;12.20;7.22;;;;;;;10.46;46.48;101926.63;5027019;28;20430;-66
2022/10/22 01:05:49;;;;;;;11.45;6.40;;;;;;;10.44;46.44;101929.44;5075659;27;20401;-67
2022/10/22 01:10:06;;;;;;;10.32;6.43;;;;;;;10.40;46.94;101938.63;5015975;28;20432;-66
2022/10/22 01:12:49;;;;;;;10.55;7.05;;;;;;;10.45;46.81;101944.38;4967872;28;20396;-67
2022/10/22 01:15:59;;;;;;;12.10;8.10;;;;;;;10.42;46.92;101938.50;5067756;27;20409;-65
2022/10/22 01:18:27;;;;;;;11.90;7.47;;;;;;;10.44;46.85;101939.19;5016423;28;20408;-66
2022/10/22 01:23:04;;;;;;;12.77;6.90;;;;;;;10.41;46.89;101913.81;5084608;27;20765;-66
2022/10/22 01:25:34;;;;;;;11.70;7.30;;;;;;;10.37;47.29;101912.44;5014236;28;20907;-66
2022/10/22 01:28:27;;;;;;;10.90;7.00;;;;;;;10.40;47.04;101913.94;5013475;28;20415;-67
2022/10/22 01:30:55;;;;;;;12.38;7.25;;;;;;;10.37;47.07;101915.09;5012607;28;20389;-66
2022/10/22 01:33:23;;;;;;;14.65;7.68;;;;;;;10.35;47.16;101916.19;5025325;28;20391;-66
2022/10/22 01:35:51;;;;;;;11.32;7.60;;;;;;;10.38;47.06;101931.81;5026572;28;20849;-66
2022/10/22 01:40:50;;;;;;;11.20;7.00;;;;;;;10.41;47.11;101929.72;5072606;27;20402;-66
2022/10/22 01:43:16;;;;;;;12.45;7.32;;;;;;;10.38;47.00;101931.81;5026487;28;20403;-66
2022/10/22 01:48:59;;;;;;;10.90;7.13;;;;;;;10.33;46.77;101922.47;5083396;27;20409;-66
2022/10/22 01:52:50;;;;;;;13.23;7.35;;;;;;;10.28;47.08;101926.44;5128712;27;20404;-66
2022/10/22 01:55:34;;;;;;;12.15;7.00;;;;;;;10.27;47.01;101922.16;5072603;28;20398;-67
2022/10/22 01:59:20;;;;;;;10.05;6.80;;;;;;;10.26;46.93;101910.72;5083605;27;20488;-66
2022/10/22 02:01:57;;;;;;;12.25;7.00;;;;;;;10.31;47.23;101912.97;5010550;28;20427;-67
2022/10/22 02:10:09;;;;;;;30.35;27.27;;;;;;;10.29;46.91;101905.13;5066967;27;20407;-67
2022/10/22 02:12:34;;;;;;;12.90;11.05;;;;;;;10.32;46.92;101910.19;5027126;28;20419;-66
2022/10/22 02:15:02;;;;;;;13.47;8.30;;;;;;;10.28;47.45;101913.19;5027095;28;20731;-66
2022/10/22 02:17:31;;;;;;;14.20;12.18;;;;;;;10.39;46.97;101915.78;5026723;28;20395;-65
2022/10/22 02:22:01;;;;;;;11.95;7.50;;;;;;;10.40;46.85;101909.47;5067019;27;20410;-66
2022/10/22 02:24:27;;;;;;;13.13;7.97;;;;;;;10.36;46.72;101904.63;5042131;28;20411;-66
2022/10/22 02:29:52;;;;;;;13.63;9.95;;;;;;;10.35;46.89;101902.94;5073084;27;20412;-67
2022/10/22 02:32:23;;;;;;;11.10;7.05;;;;;;;10.37;46.68;101898.31;5026362;28;20414;-66
2022/10/22 02:34:50;;;;;;;14.00;8.93;;;;;;;10.38;46.72;101897.34;5027312;28;20398;-67
2022/10/22 02:37:50;;;;;;;12.65;7.82;;;;;;;10.41;47.15;101897.09;5087574;27;20405;-66
2022/10/22 02:40:16;;;;;;;9.98;6.57;;;;;;;10.43;47.05;101903.91;5015786;28;20468;-67
2022/10/22 02:42:42;;;;;;;11.32;9.60;;;;;;;10.45;46.79;101898.47;5007096;28;20390;-66
2022/10/22 02:45:29;;;;;;;13.05;7.45;;;;;;;10.43;47.12;101897.78;5073188;27;20401;-66
2022/10/22 02:47:55;;;;;;;13.63;9.77;;;;;;;10.50;46.89;101897.06;5022930;28;20412;-66
2022/10/22 02:53:31;;;;;;;10.60;6.90;;;;;;;10.56;46.98;101897.50;5115155;27;20402;-66
2022/10/22 02:58:53;;;;;;;11.82;7.43;;;;;;;10.64;47.08;101897.59;5076232;27;20404;-66
2022/10/22 03:01:18;;;;;;;14.93;6.88;;;;;;;10.63;47.20;101883.53;5046734;28;20409;-66
2022/10/22 03:03:44;;;;;;;12.50;7.07;;;;;;;10.69;46.82;101884.75;5044597;28;20390;-66
2022/10/22 03:06:09;;;;;;;13.57;8.77;;;;;;;10.68;46.79;101878.63;5046496;28;20381;-66
2022/10/22 03:14:34;;;;;;;23.10;18.33;;;;;;;10.76;46.71;101887.69;5079807;27;20397;-66
2022/10/22 03:19:10;;;;;;;15.90;12.93;;;;;;;10.76;47.28;101871.78;5073193;27;20786;-66
2022/10/22 03:21:40;;;;;;;11.50;8.07;;;;;;;10.81;46.78;101873.03;5026947;28;20403;-65
2022/10/22 03:24:11;;;;;;;16.60;9.23;;;;;;;10.86;46.75;101867.31;5013875;28;20396;-65
2022/10/22 03:28:29;;;;;;;13.25;9.13;;;;;;;10.86;47.08;101865.47;5072012;27;20408;-66
2022/10/22 03:30:54;;;;;;;12.05;8.55;;;;;;;10.88;46.72;101870.63;5040952;28;20410;-66
2022/10/22 03:33:35;;;;;;;16.73;8.68;;;;;;;10.85;46.97;101866.44;5071423;27;20405;-66
2022/10/22 03:36:01;;;;;;;16.10;9.18;;;;;;;10.88;46.99;101868.00;5040772;28;20773;-67
2022/10/22 03:38:28;;;;;;;12.33;9.00;;;;;;;10.87;47.20;101863.66;5037745;28;20779;-66
2022/10/22 03:40:54;;;;;;;16.95;10.70;;;;;;;10.88;46.91;101854.72;5029167;28;20827;-66
2022/10/22 03:43:19;;;;;;;17.02;11.68;;;;;;;10.88;46.85;101873.28;5035729;28;20478;-66
2022/10/22 03:45:45;;;;;;;18.27;14.30;;;;;;;10.84;47.04;101858.63;5026601;28;20391;-65
2022/10/22 03:48:10;;;;;;;14.93;10.02;;;;;;;10.89;47.06;101867.00;5033945;28;20382;-66
2022/10/22 03:50:36;;;;;;;14.73;9.10;;;;;;;10.91;47.27;101867.69;5037766;28;20391;-66
2022/10/22 03:53:02;;;;;;;20.30;8.63;;;;;;;10.87;47.04;101864.47;5040404;28;20422;-66
2022/10/22 03:55:28;;;;;;;14.43;8.80;;;;;;;10.95;46.97;101865.56;5025570;28;20920;-66
2022/10/22 03:59:41;;;;;;;15.30;9.30;;;;;;;10.99;47.20;101861.69;5111581;27;918192;-66
2022/10/22 04:02:06;;;;;;;15.00;10.13;;;;;;;10.97;46.95;101861.00;5148504;27;20396;-67
2022/10/22 04:04:32;;;;;;;15.47;9.30;;;;;;;10.98;47.15;101855.50;5148170;27;20385;-66
2022/10/22 04:06:58;;;;;;;14.65;8.65;;;;;;;10.98;47.19;101854.69;5133635;27;20384;-67
2022/10/22 04:09:53;;;;;;;15.07;8.77;;;;;;;10.93;47.51;101844.53;5084244;27;20407;-66
2022/10/22 04:12:19;;;;;;;17.20;9.15;;;;;;;10.99;47.30;101838.63;5041812;28;20415;-66
2022/10/22 04:14:44;;;;;;;15.90;8.77;;;;;;;11.00;47.05;101839.44;5038115;28;20377;-65
2022/10/22 04:17:09;;;;;;;18.90;9.18;;;;;;;11.06;47.30;101842.38;5032602;28;20390;-66
2022/10/22 04:19:35;;;;;;;15.90;9.67;;;;;;;11.00;47.16;101832.34;5037627;28;20375;-66
2022/10/22 04:22:00;;;;;;;15.25;9.02;;;;;;;11.12;47.06;101845.44;5040586;28;20381;-66
2022/10/22 04:24:26;;;;;;;15.50;9.10;;;;;;;11.12;46.98;101848.09;5033440;28;20377;-66
2022/10/22 04:26:54;;;;;;;13.07;8.53;;;;;;;11.12;46.98;101864.00;5046565;28;20759;-66
2022/10/22 04:31:43;;;;;;;17.08;8.90;;;;;;;11.12;47.13;101858.69;5086634;27;20396;-66
2022/10/22 04:34:08;;;;;;;17.27;9.57;;;;;;;11.13;46.91;101857.69;5046674;28;20416;-66
2022/10/22 04:36:33;;;;;;;15.93;9.10;;;;;;;11.12;47.12;101842.78;5046914;28;20860;-67
2022/10/22 04:39:00;;;;;;;13.15;8.27;;;;;;;11.12;46.99;101842.78;5046838;28;20386;-66
2022/10/22 04:44:00;;;;;;;16.10;8.48;;;;;;;11.12;46.99;101838.28;5069535;27;20401;-66
2022/10/22 04:46:30;;;;;;;13.55;8.25;;;;;;;11.12;47.07;101846.25;5032816;28;20783;-67
2022/10/22 04:48:55;;;;;;;16.00;8.55;;;;;;;11.16;46.98;101858.25;5034141;28;20467;-66
2022/10/22 04:51:23;;;;;;;13.83;8.53;;;;;;;11.16;47.09;101860.06;5027134;28;20466;-67
2022/10/22 04:54:04;;;;;;;15.05;8.88;;;;;;;11.14;47.10;101849.59;5088512;27;20400;-66
2022/10/22 04:56:31;;;;;;;15.85;9.55;;;;;;;11.21;47.09;101844.53;5031774;28;20403;-66
2022/10/22 04:59:02;;;;;;;21.42;10.90;;;;;;;11.23;47.19;101835.44;5027039;28;20395;-65
2022/10/22 05:01:30;;;;;;;25.55;10.60;;;;;;;11.21;47.33;101831.28;5026645;28;20389;-66
2022/10/22 05:03:59;;;;;;;28.38;10.80;;;;;;;11.20;47.44;101829.59;5013327;28;21510;-67
2022/10/22 05:06:26;;;;;;;16.80;10.25;;;;;;;11.22;47.16;101830.31;5039057;28;20382;-67
2022/10/22 05:08:54;;;;;;;20.58;10.88;;;;;;;11.25;47.29;101840.63;5032125;28;20417;-67
2022/10/22 05:11:22;;;;;;;18.65;10.00;;;;;;;11.26;47.45;101848.44;5035750;28;20391;-67
2022/10/22 05:14:22;;;;;;;18.08;9.85;;;;;;;11.23;47.56;101846.06;5082013;27;20393;-67
2022/10/22 05:16:49;;;;;;;24.40;12.30;;;;;;;11.27;47.56;101855.44;5025882;28;20793;-58
2022/10/22 05:19:26;;;;;;;22.35;12.48;;;;;;;11.25;47.35;101857.41;5026976;28;20388;-67
2022/10/22 05:21:53;;;;;;;20.35;11.57;;;;;;;11.23;47.69;101880.56;5026602;28;20387;-67
2022/10/22 05:24:19;;;;;;;19.93;11.73;;;;;;;11.26;47.55;101869.66;5027116;28;21295;-67
2022/10/22 05:27:49;;;;;;;22.20;11.50;;;;;;;11.24;47.66;101854.88;5090576;27;20415;-65
2022/10/22 05:30:15;;;;;;;21.25;10.63;;;;;;;11.27;47.23;101867.84;5045636;28;20437;-66
2022/10/22 05:32:40;;;;;;;19.53;10.07;;;;;;;11.22;47.38;101860.34;5043219;28;20580;-66
2022/10/22 05:35:06;;;;;;;15.60;9.70;;;;;;;11.21;47.01;101871.91;5043858;28;20974;-65
2022/10/22 05:37:38;;;;;;;20.05;9.85;;;;;;;11.24;47.07;101874.28;5077290;27;20426;-66
2022/10/22 05:40:05;;;;;;;20.67;9.57;;;;;;;11.27;46.77;101860.72;5046310;28;20772;-66
2022/10/22 05:42:31;;;;;;;16.13;9.63;;;;;;;11.29;46.46;101856.09;5046692;28;20382;-67
2022/10/22 05:44:56;;;;;;;19.50;9.52;;;;;;;11.35;46.36;101853.84;5042719;28;20469;-66
2022/10/22 05:47:22;;;;;;;15.07;8.80;;;;;;;11.39;46.44;101842.78;5038625;28;20444;-66
2022/10/22 05:49:48;;;;;;;17.25;8.82;;;;;;;11.65;46.22;101844.75;5044901;28;20377;-66
2022/10/22 05:52:13;;;;;;;15.77;8.93;;;;;;;11.79;46.03;101848.69;5034193;28;20378;-67
2022/10/22 05:54:39;;;;;;;14.13;8.97;;;;;;;11.75;45.71;101840.19;5040044;28;20405;-67
2022/10/22 05:57:04;;;;;;;13.95;8.38;;;;;;;11.82;45.55;101854.53;5045955;28;20420;-66
2022/10/22 06:01:18;;;;;;;16.10;8.65;;;;;;;11.95;45.60;101862.19;5089272;27;20404;-66
2022/10/22 06:06:03;;;;;;;14.80;8.20;;;;;;;12.05;45.43;101860.28;5091313;27;20411;-66
2022/10/22 06:10:26;;;;;;;14.18;8.32;;;;;;;12.22;45.15;101858.63;5082026;27;20403;-67
2022/10/22 06:12:52;;;;;;;14.65;8.07;;;;;;;12.27;44.87;101865.31;5026522;28;20411;-67
2022/10/22 06:15:18;;;;;;;14.93;8.30;;;;;;;12.40;44.66;101882.53;5025277;28;20391;-67
2022/10/22 06:17:44;;;;;;;19.37;9.17;;;;;;;12.48;44.45;101878.28;5026017;28;20380;-68
2022/10/22 06:20:10;;;;;;;17.95;8.70;;;;;;;12.51;44.55;101881.47;5025978;28;20816;-67
2022/10/22 06:22:35;;;;;;;13.18;8.65;;;;;;;12.49;44.64;101879.97;5026034;28;20398;-68
2022/10/22 06:25:01;;;;;;;17.13;9.20;;;;;;;12.49;44.69;101869.31;5025994;28;20391;-67
2022/10/22 06:27:26;;;;;;;13.90;8.93;;;;;;;12.52;44.57;101871.69;5025284;28;20471;-66
2022/10/22 06:29:52;;;;;;;22.67;9.23;;;;;;;12.56;44.67;101873.03;5023505;28;20423;-66
2022/10/22 06:32:17;;;;;;;14.47;9.63;;;;;;;12.70;44.60;101876.97;5023970;28;20394;-66
2022/10/22 06:34:42;;;;;;;20.25;9.52;;;;;;;12.85;44.12;101871.91;5023843;28;20379;-67
2022/10/22 06:37:09;;;;;;;16.07;9.53;;;;;;;13.12;43.82;101868.22;5008438;28;20389;-67
2022/10/22 06:39:35;;;;;;;19.67;9.18;;;;;;;13.35;43.65;101872.03;5022201;28;20424;-67
2022/10/22 06:42:00;;;;;;;13.77;9.17;;;;;;;13.52;43.16;101867.63;5026133;28;20426;-66
2022/10/22 06:44:26;;;;;;;18.57;8.90;;;;;;;13.65;42.97;101871.63;5035936;28;20760;-65
2022/10/22 06:46:52;;;;;;;14.88;8.88;;;;;;;13.81;42.99;101870.84;5033170;28;20418;-66
2022/10/22 06:49:19;;;;;;;20.52;11.38;;;;;;;14.02;42.39;101879.22;5025361;28;20409;-65
2022/10/22 06:51:48;;;;;;;20.52;10.70;;;;;;;14.24;42.19;101866.25;5022773;28;20379;-66
2022/10/22 06:54:13;;;;;;;16.67;10.00;;;;;;;14.47;41.80;101856.59;5024057;28;20486;-65
2022/10/22 06:56:39;;;;;;;19.60;9.63;;;;;;;14.56;41.17;101856.59;5038168;28;20819;-66
2022/10/22 06:59:04;;;;;;;20.13;9.57;;;;;;;14.66;41.18;101863.44;5024047;28;20395;-66
2022/10/22 07:03:14;;;;;;;21.83;10.77;;;;;;;14.99;40.68;101859.88;5080599;27;20416;-65
2022/10/22 07:08:05;;;;;;;19.90;10.27;;;;;;;15.21;40.03;101864.47;5072839;27;20401;-65
2022/10/22 07:10:31;;;;;;;17.10;9.30;;;;;;;15.22;39.87;101855.47;5025843;28;20414;-66
2022/10/22 07:12:57;;;;;;;15.80;9.90;;;;;;;15.28;39.67;101848.59;5015588;28;20381;-65
2022/10/22 07:15:22;;;;;;;21.10;10.80;;;;;;;15.44;39.75;101858.41;5025385;28;20391;-66
2022/10/22 07:17:48;;;;;;;19.67;11.03;;;;;;;15.51;39.42;101862.03;5017514;28;20432;-65
2022/10/22 07:20:15;;;;;;;16.80;10.43;;;;;;;15.58;39.22;101851.50;5019862;28;20771;-65
2022/10/22 07:22:40;;;;;;;19.00;11.00;;;;;;;15.57;39.21;101847.13;5026581;28;20391;-66
2022/10/22 07:25:06;;;;;;;27.73;12.13;;;;;;;15.49;38.95;101831.97;5025188;28;20395;-66
2022/10/22 07:27:32;;;;;;;20.40;11.45;;;;;;;15.47;39.22;101836.69;5023959;28;20987;-66
2022/10/22 07:29:59;;;;;;;22.67;11.93;;;;;;;15.45;39.32;101825.34;5024275;28;20392;-66
2022/10/22 07:32:25;;;;;;;24.90;12.27;;;;;;;15.70;39.21;101825.19;5018741;28;20773;-66
2022/10/22 07:34:51;;;;;;;20.63;11.50;;;;;;;15.90;38.96;101833.59;5017265;28;20384;-66
2022/10/22 07:37:20;;;;;;;18.50;10.63;;;;;;;16.01;39.09;101817.16;5024524;28;20387;-66
2022/10/22 07:39:46;;;;;;;20.05;10.48;;;;;;;16.29;38.74;101814.72;5023937;28;20394;-66
2022/10/22 07:42:12;;;;;;;14.95;8.60;;;;;;;16.50;37.71;101814.03;5026458;28;20380;-66
2022/10/22 07:44:37;;;;;;;15.03;8.57;;;;;;;16.69;37.00;101820.72;5025975;28;20403;-66
2022/10/22 07:47:03;;;;;;;11.88;7.78;;;;;;;16.68;36.55;101818.22;5021136;28;20460;-67
2022/10/22 07:51:46;;;;;;;15.75;8.85;;;;;;;16.44;36.53;101806.75;5064751;27;20400;-66
2022/10/22 07:54:11;;;;;;;14.73;8.50;;;;;;;16.48;36.74;101789.31;5046381;28;20408;-66
2022/10/22 07:58:28;;;;;;;12.90;8.38;;;;;;;16.97;36.19;101807.53;5079806;27;20566;-66
2022/10/22 08:00:56;;;;;;;14.65;8.18;;;;;;;17.20;36.03;101795.91;5045694;28;20894;-67
2022/10/22 08:03:21;;;;;;;16.77;7.90;;;;;;;17.52;35.52;101799.13;5031670;28;20396;-66
2022/10/22 08:05:47;;;;;;;15.47;8.57;;;;;;;17.58;35.24;101806.44;5038733;28;20888;-67
2022/10/22 08:08:14;;;;;;;15.43;8.53;;;;;;;17.44;35.33;101813.47;5030552;28;20542;-66
2022/10/22 08:10:40;;;;;;;16.17;8.20;;;;;;;17.70;35.19;101815.66;5022331;28;20876;-66
2022/10/22 08:13:06;;;;;;;14.70;8.20;;;;;;;17.91;35.06;101804.09;5026282;28;20427;-66
2022/10/22 08:15:31;;;;;;;13.57;7.65;;;;;;;17.83;34.36;101787.31;5030665;28;20897;-66
2022/10/22 08:17:57;;;;;;;15.30;8.07;;;;;;;17.50;34.52;101801.16;5026146;28;20505;-67
2022/10/22 08:20:22;;;;;;;11.47;7.37;;;;;;;17.29;34.81;101812.69;5026739;28;20401;-67
2022/10/22 08:22:48;;;;;;;11.50;7.63;;;;;;;17.34;34.97;101815.63;5026516;28;20437;-66
2022/10/22 08:25:14;;;;;;;13.98;7.60;;;;;;;17.43;34.64;101801.13;5038244;28;20758;-66
2022/10/22 08:27:40;;;;;;;14.27;7.68;;;;;;;17.45;34.71;101795.53;5039518;28;20780;-65
2022/10/22 08:30:06;;;;;;;15.73;7.72;;;;;;;17.39;34.74;101800.66;5033344;28;20855;-67
2022/10/22 08:32:32;;;;;;;13.80;8.32;;;;;;;17.31;34.96;101799.94;5027532;28;20746;-67
2022/10/22 08:34:58;;;;;;;18.10;8.18;;;;;;;17.10;35.54;101790.00;5025086;28;20904;-66
2022/10/22 08:37:24;;;;;;;18.67;8.13;;;;;;;17.18;35.50;101796.06;5028165;28;20421;-66
2022/10/22 08:39:50;;;;;;;18.38;8.80;;;;;;;17.04;35.21;101802.28;5037856;28;20389;-67
2022/10/22 08:42:34;;;;;;;13.85;7.93;;;;;;;16.86;35.85;101789.28;5025960;28;20743;-73
2022/10/22 08:45:09;;;;;;;14.60;8.00;;;;;;;16.78;35.93;101781.28;5032637;28;20397;-73
2022/10/22 08:47:52;;;;;;;15.45;7.95;;;;;;;16.62;36.09;101776.97;5025887;28;20449;-73
2022/10/22 08:50:29;;;;;;;14.75;7.95;;;;;;;16.61;36.54;101772.63;5031030;28;20481;-71
2022/10/22 08:52:59;;;;;;;15.63;8.25;;;;;;;16.68;36.45;101760.16;5032525;28;20396;-67
2022/10/22 08:55:24;;;;;;;12.52;7.88;;;;;;;16.80;36.95;101765.88;5025221;28;20954;-75
2022/10/22 09:00:45;;;;;;;17.13;8.98;;;;;;;16.70;37.15;101784.06;5076382;27;20409;-71
2022/10/22 09:03:35;;;;;;;26.20;10.93;;;;;;;16.46;37.36;101782.47;5005661;28;20425;-70
2022/10/22 09:06:14;;;;;;;44.65;11.38;;;;;;;16.57;37.52;101779.34;5020372;28;20390;-70
2022/10/22 09:08:44;;;;;;;18.55;10.60;;;;;;;16.58;37.68;101789.03;5025625;28;20388;-72
2022/10/22 09:11:09;;;;;;;19.77;11.05;;;;;;;16.37;38.36;101789.75;5024489;28;20387;-72
2022/10/22 09:14:49;;;;;;;17.17;10.85;;;;;;;16.77;38.06;101790.34;5061292;27;20398;-77
2022/10/22 09:17:37;;;;;;;22.80;10.88;;;;;;;16.85;37.77;101782.25;5026140;28;20404;-73
2022/10/22 09:20:15;;;;;;;23.95;10.60;;;;;;;17.00;37.98;101788.44;5025968;28;20391;-72
2022/10/22 09:22:59;;;;;;;18.58;11.00;;;;;;;16.85;38.09;101782.25;5025385;28;20504;-70
2022/10/22 09:25:31;;;;;;;18.70;11.07;;;;;;;17.08;38.11;101776.78;5025343;28;20395;-74
2022/10/22 09:27:59;;;;;;;17.27;10.43;;;;;;;17.29;38.08;101777.88;5025723;28;20482;-71
2022/10/22 09:32:11;;;;;;;25.40;11.00;;;;;;;17.13;37.88;101778.91;5116897;27;864216;-67
2022/10/22 09:34:36;;;;;;;31.15;11.13;;;;;;;17.10;37.75;101761.34;5147773;27;20389;-64
2022/10/22 09:37:08;;;;;;;19.80;9.47;;;;;;;17.08;37.85;101759.88;5147906;27;20744;-64
2022/10/22 09:39:42;;;;;;;18.50;9.25;;;;;;;17.12;37.42;101759.31;5147585;27;20388;-57
2022/10/22 09:42:10;;;;;;;12.63;8.27;;;;;;;17.06;36.72;101756.56;5147676;27;20418;-56
2022/10/22 09:44:37;;;;;;;17.65;7.80;;;;;;;17.07;36.97;101761.72;5148035;27;20466;-56
2022/10/22 09:47:05;;;;;;;14.77;8.10;;;;;;;17.10;36.73;101760.53;5147717;27;20373;-57
2022/10/22 09:49:34;;;;;;;18.58;8.80;;;;;;;17.12;36.89;101763.84;5146719;27;20866;-57
2022/10/22 09:52:02;;;;;;;16.38;8.15;;;;;;;17.04;36.73;101762.09;5145950;27;20424;-56
2022/10/22 09:54:33;;;;;;;19.13;15.88;;;;;;;16.97;37.18;101753.16;5146883;27;20381;-58
2022/10/22 09:57:05;;;;;;;15.68;8.38;;;;;;;16.91;37.38;101744.03;5145672;27;20380;-56
2022/10/22 09:59:35;;;;;;;20.20;10.50;;;;;;;17.05;37.25;101739.66;5147037;27;20381;-57
2022/10/22 10:02:10;;;;;;;22.13;9.88;;;;;;;17.15;37.49;101742.84;5146810;27;20369;-57
2022/10/22 10:04:41;;;;;;;13.88;9.43;;;;;;;17.34;37.24;101736.06;5144876;27;20788;-57
2022/10/22 10:07:17;;;;;;;22.77;12.18;;;;;;;17.45;37.14;101747.28;5146521;27;20532;-57
2022/10/22 10:09:43;;;;;;;23.15;10.77;;;;;;;17.30;37.14;101736.63;5146035;27;20984;-57
2022/10/22 10:12:17;;;;;;;18.92;10.77;;;;;;;17.38;37.31;101739.19;5146822;27;20475;-57
2022/10/22 10:15:07;;;;;;;20.50;11.25;;;;;;;17.31;37.39;101725.72;5144322;27;20929;-57
2022/10/22 10:17:41;;;;;;;16.15;11.20;;;;;;;17.48;37.46;101717.44;5145136;27;20420;-56
2022/10/22 10:20:24;;;;;;;26.08;12.93;;;;;;;17.63;37.16;101710.16;5143765;27;20397;-56
2022/10/22 10:23:01;;;;;;;27.77;11.95;;;;;;;17.86;37.27;101711.81;5146792;27;20413;-56
2022/10/22 10:25:40;;;;;;;33.90;30.20;;;;;;;18.02;37.84;101713.41;5144865;27;20370;-55
2022/10/22 10:28:08;;;;;;;46.47;29.65;;;;;;;17.98;37.19;101704.09;5145684;27;20468;-56
2022/10/22 10:30:43;;;;;;;12.75;8.32;;;;;;;18.07;36.76;101687.63;5146340;27;20419;-57
2022/10/22 10:33:27;;;;;;;18.75;9.00;;;;;;;18.25;36.37;101700.56;5146096;27;20807;-57
2022/10/22 10:36:17;;;;;;;16.73;10.23;;;;;;;18.41;36.25;101688.69;5144167;27;20430;-57
2022/10/22 10:38:54;;;;;;;34.42;15.15;;;;;;;18.63;36.32;101681.34;5144728;27;20460;-59
2022/10/22 10:41:44;;;;;;;29.37;11.03;;;;;;;18.79;36.13;101687.41;5144792;27;20977;-56
2022/10/22 10:44:13;;;;;;;28.73;10.80;;;;;;;18.74;35.72;101679.94;5130431;27;20381;-58
2022/10/22 10:46:38;;;;;;;20.77;9.38;;;;;;;18.83;35.85;101686.00;5131649;27;20527;-57
2022/10/22 10:49:32;;;;;;;14.30;8.63;;;;;;;18.65;35.48;101671.22;5132206;27;20461;-58
2022/10/22 10:52:15;;;;;;;17.90;13.05;;;;;;;18.82;35.42;101670.94;5127883;27;20413;-56
2022/10/22 10:54:46;;;;;;;15.68;8.90;;;;;;;18.94;35.01;101671.97;5131673;27;20378;-57
2022/10/22 10:57:45;;;;;;;17.23;10.70;;;;;;;19.06;35.00;101672.25;5131752;27;20410;-56
2022/10/22 11:00:18;;;;;;;17.13;10.80;;;;;;;19.00;34.96;101662.31;5129081;27;21008;-58
2022/10/22 11:03:02;;;;;;;14.70;8.30;;;;;;;18.91;34.80;101659.78;5131699;27;20827;-56
2022/10/22 11:05:50;;;;;;;18.40;8.85;;;;;;;18.76;35.24;101650.19;5111891;27;20780;-56
2022/10/22 11:08:40;;;;;;;14.52;8.88;;;;;;;18.67;35.53;101634.28;5128681;27;20386;-56
2022/10/22 11:11:17;;;;;;;22.80;9.45;;;;;;;18.95;35.53;101622.59;5128758;27;20405;-56
2022/10/22 11:13:56;;;;;;;13.60;8.60;;;;;;;19.27;34.80;101626.38;5128369;27;20473;-55
2022/10/22 11:16:24;;;;;;;14.85;7.90;;;;;;;19.24;34.74;101617.91;5129956;27;20400;-55
2022/10/22 11:19:12;;;;;;;13.50;8.80;;;;;;;19.31;34.83;101617.91;5129060;27;20458;-55
2022/10/22 11:21:44;;;;;;;48.60;28.00;;;;;;;19.43;34.80;101602.81;5109327;27;20387;-58
2022/10/22 11:24:09;;;;;;;31.00;16.05;;;;;;;19.44;34.42;101596.38;5131298;27;20382;-57
2022/10/22 11:26:43;;;;;;;15.83;7.60;;;;;;;19.39;34.50;101591.66;5131854;27;20742;-57
2022/10/22 11:29:26;;;;;;;18.38;7.70;;;;;;;19.41;34.27;101588.72;5131837;27;20378;-56
2022/10/22 11:31:54;;;;;;;17.25;7.72;;;;;;;19.53;34.59;101602.38;5127291;27;20436;-56
2022/10/22 11:34:32;;;;;;;25.38;8.75;;;;;;;19.41;34.41;101573.44;5131092;27;20860;-56
2022/10/22 11:36:58;;;;;;;16.75;7.85;;;;;;;19.40;34.43;101573.66;5126649;27;20394;-57
2022/10/22 11:39:42;;;;;;;17.08;7.70;;;;;;;19.41;34.33;101575.28;5131790;27;20385;-56
2022/10/22 11:42:28;;;;;;;16.05;7.18;;;;;;;19.38;34.35;101571.16;5128121;27;20381;-56
2022/10/22 11:45:18;;;;;;;13.05;6.90;;;;;;;19.40;34.37;101570.97;5131766;27;20385;-56
2022/10/22 11:47:55;;;;;;;15.57;7.07;;;;;;;19.26;34.68;101568.25;5112349;27;20405;-57
2022/10/22 11:50:24;;;;;;;18.45;8.13;;;;;;;19.16;34.69;101553.56;5130154;27;20410;-56
2022/10/22 11:53:18;;;;;;;20.67;8.70;;;;;;;19.10;34.71;101566.84;5130792;27;20409;-56
2022/10/22 11:55:50;;;;;;;25.48;8.48;;;;;;;19.22;34.68;101576.97;5130254;27;20390;-56
2022/10/22 11:58:28;;;;;;;22.95;8.35;;;;;;;19.19;34.60;101559.38;5127724;27;20460;-56
2022/10/22 12:01:08;;;;;;;29.40;8.98;;;;;;;19.20;34.73;101558.34;5129393;27;20377;-57
2022/10/22 12:03:33;;;;;;;22.55;8.50;;;;;;;19.32;34.82;101553.19;5131100;27;20374;-56
2022/10/22 12:06:19;;;;;;;13.97;6.80;;;;;;;19.28;34.71;101544.72;5130365;27;20384;-56
2022/10/22 12:08:47;;;;;;;15.23;6.10;;;;;;;19.31;34.55;101530.00;5130030;27;20413;-56
2022/10/22 12:13:22;;;;;;;13.98;6.28;;;;;;;19.36;34.48;101527.53;5059898;27;21321;-56
2022/10/22 12:15:53;;;;;;;19.10;6.28;;;;;;;19.34;34.45;101518.00;5026109;28;20407;-56
2022/10/22 12:18:24;;;;;;;19.17;7.32;;;;;;;19.33;34.42;101519.88;5026036;28;20379;-55
2022/10/22 12:20:52;;;;;;;13.05;7.32;;;;;;;19.31;34.68;101519.25;5025817;28;20398;-56
2022/10/22 12:23:17;;;;;;;21.20;7.27;;;;;;;19.39;34.65;101515.53;5025557;28;20395;-56
2022/10/22 12:25:43;;;;;;;21.07;7.77;;;;;;;19.42;34.55;101512.41;5025454;28;20766;-56
2022/10/22 12:28:12;;;;;;;19.40;7.63;;;;;;;19.45;34.67;101517.41;5025665;28;20379;-56
2022/10/22 12:30:38;;;;;;;21.90;8.48;;;;;;;19.35;34.73;101509.72;5024814;28;20446;-57
2022/10/22 12:33:05;;;;;;;19.92;8.15;;;;;;;19.40;34.66;101509.13;5023759;28;20525;-57
2022/10/22 12:37:28;;;;;;;17.73;7.80;;;;;;;19.42;34.63;101490.91;5079446;27;20420;-56
2022/10/22 12:39:53;;;;;;;18.30;7.72;;;;;;;19.45;34.62;101490.50;5026836;28;20406;-56
2022/10/22 12:42:21;;;;;;;20.17;8.03;;;;;;;19.43;34.48;101479.94;5026410;28;20391;-56
2022/10/22 12:44:46;;;;;;;16.75;7.68;;;;;;;19.52;34.73;101482.41;5016741;28;20849;-57
2022/10/22 12:50:42;;;;;;;22.25;7.95;;;;;;;19.46;34.63;101486.75;5115115;27;20416;-56
2022/10/22 12:53:25;;;;;;;19.33;7.13;;;;;;;19.51;34.66;101496.91;5059215;28;20407;-57